sensor_id;sensor_type;location;lat;lon;timestamp;P1;durP1;ratioP1;P2;durP2;ratioP2
41623;SDS011;27319;50.306;18.926;2022-09-16T00:01:27;17.25;;;11.98;;
41623;SDS011;27319;50.306;18.926;2022-09-16T00:04:28;16.92;;;11.70;;
41623;SDS011;27319;50.306;18.926;2022-09-16T00:07:29;15.13;;;10.48;;
41623;SDS011;27319;50.306;18.926;2022-09-16T00:10:30;19.35;;;10.65;;
41623;SDS011;27319;50.306;18.926;2022-09-16T00:13:31;16.58;;;11.18;;
41623;SDS011;27319;50.306;18.926;2022-09-16T00:16:32;17.27;;;11.00;;
41623;SDS011;27319;50.306;18.926;2022-09-16T00:19:32;15.18;;;10.23;;
41623;SDS011;27319;50.306;18.926;2022-09-16T00:22:34;20.90;;;12.25;;
41623;SDS011;27319;50.306;18.926;2022-09-16T00:25:34;18.27;;;10.73;;
41623;SDS011;27319;50.306;18.926;2022-09-16T00:28:35;15.93;;;11.00;;
41623;SDS011;27319;50.306;18.926;2022-09-16T00:31:36;15.55;;;10.02;;
41623;SDS011;27319;50.306;18.926;2022-09-16T00:34:37;16.05;;;8.35;;
41623;SDS011;27319;50.306;18.926;2022-09-16T00:37:38;14.45;;;9.63;;
41623;SDS011;27319;50.306;18.926;2022-09-16T00:40:43;12.82;;;8.27;;
41623;SDS011;27319;50.306;18.926;2022-09-16T00:46:55;14.93;;;9.10;;
41623;SDS011;27319;50.306;18.926;2022-09-16T00:49:57;14.27;;;9.05;;
41623;SDS011;27319;50.306;18.926;2022-09-16T00:53:12;12.90;;;9.30;;
41623;SDS011;27319;50.306;18.926;2022-09-16T00:56:20;15.10;;;9.68;;
41623;SDS011;27319;50.306;18.926;2022-09-16T00:59:24;15.30;;;10.13;;
41623;SDS011;27319;50.306;18.926;2022-09-16T01:02:28;19.05;;;9.95;;
41623;SDS011;27319;50.306;18.926;2022-09-16T01:05:29;14.52;;;9.27;;
41623;SDS011;27319;50.306;18.926;2022-09-16T01:08:29;18.45;;;10.13;;
41623;SDS011;27319;50.306;18.926;2022-09-16T01:11:30;14.55;;;9.15;;
41623;SDS011;27319;50.306;18.926;2022-09-16T01:14:31;11.98;;;8.48;;
41623;SDS011;27319;50.306;18.926;2022-09-16T01:31:25;11.95;;;7.63;;
41623;SDS011;27319;50.306;18.926;2022-09-16T01:45:19;16.20;;;8.10;;
41623;SDS011;27319;50.306;18.926;2022-09-16T01:54:48;15.05;;;9.93;;
41623;SDS011;27319;50.306;18.926;2022-09-16T01:58:00;13.23;;;9.73;;
41623;SDS011;27319;50.306;18.926;2022-09-16T02:01:12;13.90;;;10.25;;
41623;SDS011;27319;50.306;18.926;2022-09-16T02:04:23;15.13;;;9.48;;
41623;SDS011;27319;50.306;18.926;2022-09-16T02:07:30;19.17;;;10.10;;
41623;SDS011;27319;50.306;18.926;2022-09-16T02:10:37;12.15;;;9.57;;
41623;SDS011;27319;50.306;18.926;2022-09-16T02:14:05;14.00;;;9.20;;
41623;SDS011;27319;50.306;18.926;2022-09-16T02:17:09;15.68;;;9.20;;
41623;SDS011;27319;50.306;18.926;2022-09-16T02:20:15;15.80;;;9.02;;
41623;SDS011;27319;50.306;18.926;2022-09-16T02:23:24;18.02;;;8.52;;
41623;SDS011;27319;50.306;18.926;2022-09-16T02:26:34;10.93;;;7.97;;
41623;SDS011;27319;50.306;18.926;2022-09-16T02:29:42;11.32;;;7.95;;
41623;SDS011;27319;50.306;18.926;2022-09-16T02:32:55;10.32;;;7.88;;
41623;SDS011;27319;50.306;18.926;2022-09-16T02:36:00;12.80;;;9.13;;
41623;SDS011;27319;50.306;18.926;2022-09-16T02:39:08;11.05;;;8.32;;
41623;SDS011;27319;50.306;18.926;2022-09-16T02:42:12;10.20;;;9.02;;
41623;SDS011;27319;50.306;18.926;2022-09-16T02:45:13;10.68;;;7.55;;
41623;SDS011;27319;50.306;18.926;2022-09-16T02:48:25;10.48;;;7.20;;
41623;SDS011;27319;50.306;18.926;2022-09-16T02:52:07;11.45;;;7.35;;
41623;SDS011;27319;50.306;18.926;2022-09-16T02:58:53;9.98;;;7.25;;
41623;SDS011;27319;50.306;18.926;2022-09-16T03:01:54;8.57;;;7.18;;
41623;SDS011;27319;50.306;18.926;2022-09-16T03:04:55;8.93;;;6.15;;
41623;SDS011;27319;50.306;18.926;2022-09-16T03:07:56;11.40;;;6.85;;
41623;SDS011;27319;50.306;18.926;2022-09-16T03:10:58;11.38;;;6.85;;
41623;SDS011;27319;50.306;18.926;2022-09-16T03:24:07;10.60;;;6.38;;
41623;SDS011;27319;50.306;18.926;2022-09-16T03:27:27;9.90;;;6.50;;
41623;SDS011;27319;50.306;18.926;2022-09-16T03:30:33;8.07;;;5.60;;
41623;SDS011;27319;50.306;18.926;2022-09-16T03:33:41;12.23;;;7.60;;
41623;SDS011;27319;50.306;18.926;2022-09-16T03:39:54;12.00;;;7.10;;
41623;SDS011;27319;50.306;18.926;2022-09-16T03:42:57;8.85;;;6.68;;
41623;SDS011;27319;50.306;18.926;2022-09-16T03:45:58;8.75;;;7.28;;
41623;SDS011;27319;50.306;18.926;2022-09-16T03:48:59;10.27;;;6.45;;
41623;SDS011;27319;50.306;18.926;2022-09-16T03:52:01;7.90;;;6.43;;
41623;SDS011;27319;50.306;18.926;2022-09-16T03:55:05;10.00;;;6.15;;
41623;SDS011;27319;50.306;18.926;2022-09-16T03:58:08;7.60;;;6.03;;
41623;SDS011;27319;50.306;18.926;2022-09-16T04:01:09;7.95;;;5.78;;
41623;SDS011;27319;50.306;18.926;2022-09-16T04:04:10;10.15;;;5.65;;
41623;SDS011;27319;50.306;18.926;2022-09-16T04:07:11;11.60;;;5.78;;
41623;SDS011;27319;50.306;18.926;2022-09-16T04:10:12;8.65;;;5.68;;
41623;SDS011;27319;50.306;18.926;2022-09-16T04:13:13;9.25;;;6.07;;
41623;SDS011;27319;50.306;18.926;2022-09-16T04:16:18;8.77;;;5.93;;
41623;SDS011;27319;50.306;18.926;2022-09-16T04:19:23;12.30;;;6.57;;
41623;SDS011;27319;50.306;18.926;2022-09-16T04:22:26;9.60;;;6.78;;
41623;SDS011;27319;50.306;18.926;2022-09-16T04:25:29;12.70;;;5.78;;
41623;SDS011;27319;50.306;18.926;2022-09-16T04:28:30;7.45;;;5.97;;
41623;SDS011;27319;50.306;18.926;2022-09-16T04:31:32;11.38;;;6.22;;
41623;SDS011;27319;50.306;18.926;2022-09-16T04:34:33;9.20;;;6.40;;
41623;SDS011;27319;50.306;18.926;2022-09-16T04:37:33;7.10;;;5.72;;
41623;SDS011;27319;50.306;18.926;2022-09-16T04:40:34;6.85;;;5.72;;
41623;SDS011;27319;50.306;18.926;2022-09-16T04:43:37;8.13;;;5.75;;
41623;SDS011;27319;50.306;18.926;2022-09-16T04:46:38;9.00;;;6.93;;
41623;SDS011;27319;50.306;18.926;2022-09-16T04:49:39;8.57;;;6.28;;
41623;SDS011;27319;50.306;18.926;2022-09-16T04:52:40;9.43;;;6.10;;
41623;SDS011;27319;50.306;18.926;2022-09-16T04:55:40;9.93;;;6.03;;
41623;SDS011;27319;50.306;18.926;2022-09-16T04:58:48;11.95;;;6.10;;
41623;SDS011;27319;50.306;18.926;2022-09-16T05:01:51;10.65;;;5.40;;
41623;SDS011;27319;50.306;18.926;2022-09-16T05:04:52;12.68;;;6.35;;
41623;SDS011;27319;50.306;18.926;2022-09-16T05:07:52;10.48;;;5.47;;
41623;SDS011;27319;50.306;18.926;2022-09-16T05:10:53;13.40;;;6.82;;
41623;SDS011;27319;50.306;18.926;2022-09-16T05:14:01;8.32;;;5.57;;
41623;SDS011;27319;50.306;18.926;2022-09-16T05:17:04;9.00;;;5.93;;
41623;SDS011;27319;50.306;18.926;2022-09-16T05:20:05;8.68;;;5.57;;
41623;SDS011;27319;50.306;18.926;2022-09-16T05:23:08;8.13;;;5.57;;
41623;SDS011;27319;50.306;18.926;2022-09-16T05:26:11;9.77;;;5.47;;
41623;SDS011;27319;50.306;18.926;2022-09-16T05:29:14;11.32;;;5.63;;
41623;SDS011;27319;50.306;18.926;2022-09-16T05:32:16;8.45;;;6.05;;
41623;SDS011;27319;50.306;18.926;2022-09-16T05:35:17;11.77;;;6.50;;
41623;SDS011;27319;50.306;18.926;2022-09-16T05:38:18;12.18;;;6.82;;
41623;SDS011;27319;50.306;18.926;2022-09-16T05:41:19;9.20;;;6.43;;
41623;SDS011;27319;50.306;18.926;2022-09-16T05:44:20;13.27;;;7.43;;
41623;SDS011;27319;50.306;18.926;2022-09-16T05:47:21;12.75;;;7.13;;
41623;SDS011;27319;50.306;18.926;2022-09-16T05:50:22;9.70;;;7.50;;
41623;SDS011;27319;50.306;18.926;2022-09-16T05:53:23;11.05;;;7.18;;
41623;SDS011;27319;50.306;18.926;2022-09-16T05:56:27;18.30;;;8.60;;
41623;SDS011;27319;50.306;18.926;2022-09-16T05:59:29;11.52;;;8.15;;
41623;SDS011;27319;50.306;18.926;2022-09-16T06:02:30;11.48;;;7.80;;
41623;SDS011;27319;50.306;18.926;2022-09-16T06:05:31;15.88;;;8.50;;
41623;SDS011;27319;50.306;18.926;2022-09-16T06:08:33;9.75;;;7.43;;
41623;SDS011;27319;50.306;18.926;2022-09-16T06:11:36;13.90;;;8.57;;
41623;SDS011;27319;50.306;18.926;2022-09-16T06:14:41;12.82;;;8.40;;
41623;SDS011;27319;50.306;18.926;2022-09-16T06:17:42;14.77;;;8.55;;
41623;SDS011;27319;50.306;18.926;2022-09-16T06:20:43;15.60;;;10.82;;
41623;SDS011;27319;50.306;18.926;2022-09-16T06:23:45;15.65;;;9.77;;
41623;SDS011;27319;50.306;18.926;2022-09-16T06:26:46;15.70;;;11.10;;
41623;SDS011;27319;50.306;18.926;2022-09-16T06:29:49;17.92;;;9.25;;
41623;SDS011;27319;50.306;18.926;2022-09-16T06:32:50;11.55;;;9.18;;
41623;SDS011;27319;50.306;18.926;2022-09-16T06:35:51;11.48;;;8.63;;
41623;SDS011;27319;50.306;18.926;2022-09-16T06:38:53;16.10;;;8.45;;
41623;SDS011;27319;50.306;18.926;2022-09-16T06:41:54;12.93;;;8.55;;
41623;SDS011;27319;50.306;18.926;2022-09-16T06:44:54;12.65;;;8.57;;
41623;SDS011;27319;50.306;18.926;2022-09-16T06:47:58;15.23;;;9.13;;
41623;SDS011;27319;50.306;18.926;2022-09-16T06:51:03;15.75;;;9.10;;
41623;SDS011;27319;50.306;18.926;2022-09-16T06:54:06;14.48;;;9.02;;
41623;SDS011;27319;50.306;18.926;2022-09-16T06:57:09;12.98;;;9.50;;
41623;SDS011;27319;50.306;18.926;2022-09-16T07:00:10;12.68;;;8.52;;
41623;SDS011;27319;50.306;18.926;2022-09-16T07:03:12;16.20;;;9.23;;
41623;SDS011;27319;50.306;18.926;2022-09-16T07:06:13;13.65;;;8.57;;
41623;SDS011;27319;50.306;18.926;2022-09-16T07:09:14;10.82;;;8.05;;
41623;SDS011;27319;50.306;18.926;2022-09-16T07:12:15;14.80;;;9.20;;
41623;SDS011;27319;50.306;18.926;2022-09-16T07:15:16;15.60;;;8.60;;
41623;SDS011;27319;50.306;18.926;2022-09-16T07:18:17;14.30;;;9.07;;
41623;SDS011;27319;50.306;18.926;2022-09-16T07:21:19;13.43;;;9.35;;
41623;SDS011;27319;50.306;18.926;2022-09-16T07:24:23;12.45;;;9.80;;
41623;SDS011;27319;50.306;18.926;2022-09-16T07:27:24;14.73;;;9.15;;
41623;SDS011;27319;50.306;18.926;2022-09-16T07:30:25;15.57;;;9.18;;
41623;SDS011;27319;50.306;18.926;2022-09-16T07:33:28;13.07;;;8.98;;
41623;SDS011;27319;50.306;18.926;2022-09-16T07:36:36;14.02;;;8.80;;
41623;SDS011;27319;50.306;18.926;2022-09-16T07:39:39;13.88;;;8.57;;
41623;SDS011;27319;50.306;18.926;2022-09-16T07:42:40;15.77;;;9.23;;
41623;SDS011;27319;50.306;18.926;2022-09-16T07:45:41;15.90;;;9.38;;
41623;SDS011;27319;50.306;18.926;2022-09-16T07:48:43;10.32;;;8.48;;
41623;SDS011;27319;50.306;18.926;2022-09-16T07:51:45;14.57;;;8.45;;
41623;SDS011;27319;50.306;18.926;2022-09-16T07:54:47;14.52;;;9.13;;
41623;SDS011;27319;50.306;18.926;2022-09-16T07:57:48;12.13;;;8.80;;
41623;SDS011;27319;50.306;18.926;2022-09-16T08:00:49;18.75;;;10.00;;
41623;SDS011;27319;50.306;18.926;2022-09-16T08:03:50;16.48;;;9.68;;
41623;SDS011;27319;50.306;18.926;2022-09-16T08:06:52;11.60;;;9.20;;
41623;SDS011;27319;50.306;18.926;2022-09-16T08:09:52;24.15;;;10.23;;
41623;SDS011;27319;50.306;18.926;2022-09-16T08:12:53;12.77;;;9.88;;
41623;SDS011;27319;50.306;18.926;2022-09-16T08:15:54;17.75;;;10.18;;
41623;SDS011;27319;50.306;18.926;2022-09-16T08:18:59;14.57;;;9.10;;
41623;SDS011;27319;50.306;18.926;2022-09-16T08:22:00;14.95;;;10.13;;
41623;SDS011;27319;50.306;18.926;2022-09-16T08:25:01;13.80;;;10.38;;
41623;SDS011;27319;50.306;18.926;2022-09-16T08:28:02;15.73;;;9.18;;
41623;SDS011;27319;50.306;18.926;2022-09-16T08:31:04;14.98;;;9.15;;
41623;SDS011;27319;50.306;18.926;2022-09-16T08:34:05;13.02;;;8.05;;
41623;SDS011;27319;50.306;18.926;2022-09-16T08:37:06;12.98;;;8.20;;
41623;SDS011;27319;50.306;18.926;2022-09-16T08:40:12;13.85;;;8.10;;
41623;SDS011;27319;50.306;18.926;2022-09-16T08:43:18;12.63;;;8.50;;
41623;SDS011;27319;50.306;18.926;2022-09-16T08:49:49;15.10;;;9.27;;
41623;SDS011;27319;50.306;18.926;2022-09-16T08:52:51;11.32;;;8.93;;
41623;SDS011;27319;50.306;18.926;2022-09-16T08:55:56;10.80;;;8.13;;
41623;SDS011;27319;50.306;18.926;2022-09-16T08:58:59;13.77;;;8.85;;
41623;SDS011;27319;50.306;18.926;2022-09-16T09:02:23;9.27;;;6.75;;
41623;SDS011;27319;50.306;18.926;2022-09-16T09:12:31;12.00;;;4.87;;
41623;SDS011;27319;50.306;18.926;2022-09-16T09:19:54;6.80;;;4.35;;
41623;SDS011;27319;50.306;18.926;2022-09-16T09:23:01;8.25;;;4.97;;
41623;SDS011;27319;50.306;18.926;2022-09-16T09:26:21;7.25;;;4.85;;
41623;SDS011;27319;50.306;18.926;2022-09-16T09:32:56;8.65;;;4.88;;
41623;SDS011;27319;50.306;18.926;2022-09-16T09:49:35;5.68;;;3.30;;
41623;SDS011;27319;50.306;18.926;2022-09-16T09:53:10;5.88;;;2.95;;
41623;SDS011;27319;50.306;18.926;2022-09-16T10:02:59;5.45;;;2.35;;
41623;SDS011;27319;50.306;18.926;2022-09-16T10:06:05;3.90;;;2.70;;
41623;SDS011;27319;50.306;18.926;2022-09-16T10:09:08;5.28;;;3.13;;
41623;SDS011;27319;50.306;18.926;2022-09-16T10:12:24;5.78;;;2.88;;
41623;SDS011;27319;50.306;18.926;2022-09-16T10:15:35;4.72;;;2.53;;
41623;SDS011;27319;50.306;18.926;2022-09-16T10:18:37;5.18;;;2.85;;
41623;SDS011;27319;50.306;18.926;2022-09-16T10:22:25;3.28;;;2.63;;
41623;SDS011;27319;50.306;18.926;2022-09-16T10:25:20;4.05;;;2.70;;
41623;SDS011;27319;50.306;18.926;2022-09-16T10:28:26;8.07;;;2.35;;
41623;SDS011;27319;50.306;18.926;2022-09-16T10:31:28;7.30;;;2.92;;
41623;SDS011;27319;50.306;18.926;2022-09-16T10:34:38;6.25;;;2.63;;
41623;SDS011;27319;50.306;18.926;2022-09-16T10:37:44;3.08;;;2.58;;
41623;SDS011;27319;50.306;18.926;2022-09-16T10:41:01;3.40;;;2.90;;
41623;SDS011;27319;50.306;18.926;2022-09-16T10:44:12;7.18;;;2.95;;
41623;SDS011;27319;50.306;18.926;2022-09-16T10:47:25;5.57;;;3.22;;
41623;SDS011;27319;50.306;18.926;2022-09-16T10:50:29;3.33;;;2.65;;
41623;SDS011;27319;50.306;18.926;2022-09-16T10:53:35;4.15;;;2.78;;
41623;SDS011;27319;50.306;18.926;2022-09-16T10:56:48;7.00;;;2.30;;
41623;SDS011;27319;50.306;18.926;2022-09-16T10:59:59;3.17;;;2.00;;
41623;SDS011;27319;50.306;18.926;2022-09-16T11:13:16;6.60;;;2.40;;
41623;SDS011;27319;50.306;18.926;2022-09-16T11:30:28;2.30;;;1.60;;
41623;SDS011;27319;50.306;18.926;2022-09-16T11:50:30;4.20;;;1.80;;
41623;SDS011;27319;50.306;18.926;2022-09-16T11:57:20;3.10;;;2.17;;
41623;SDS011;27319;50.306;18.926;2022-09-16T12:00:25;5.00;;;1.95;;
41623;SDS011;27319;50.306;18.926;2022-09-16T12:03:42;5.75;;;1.90;;
41623;SDS011;27319;50.306;18.926;2022-09-16T12:10:13;3.03;;;1.95;;
41623;SDS011;27319;50.306;18.926;2022-09-16T12:13:28;7.00;;;2.70;;
41623;SDS011;27319;50.306;18.926;2022-09-16T12:16:55;4.90;;;2.25;;
41623;SDS011;27319;50.306;18.926;2022-09-16T12:20:15;8.25;;;2.45;;
41623;SDS011;27319;50.306;18.926;2022-09-16T12:23:23;3.15;;;2.08;;
41623;SDS011;27319;50.306;18.926;2022-09-16T12:26:36;5.60;;;2.45;;
41623;SDS011;27319;50.306;18.926;2022-09-16T12:30:03;4.18;;;2.33;;
41623;SDS011;27319;50.306;18.926;2022-09-16T12:33:19;5.13;;;2.67;;
41623;SDS011;27319;50.306;18.926;2022-09-16T12:36:26;4.13;;;2.25;;
41623;SDS011;27319;50.306;18.926;2022-09-16T12:39:29;2.20;;;1.80;;
41623;SDS011;27319;50.306;18.926;2022-09-16T13:02:50;2.33;;;2.05;;
41623;SDS011;27319;50.306;18.926;2022-09-16T13:05:55;7.53;;;1.95;;
41623;SDS011;27319;50.306;18.926;2022-09-16T13:09:38;3.65;;;2.10;;
41623;SDS011;27319;50.306;18.926;2022-09-16T13:12:39;4.63;;;2.17;;
41623;SDS011;27319;50.306;18.926;2022-09-16T13:15:40;4.32;;;2.55;;
41623;SDS011;27319;50.306;18.926;2022-09-16T13:18:45;6.60;;;2.60;;
41623;SDS011;27319;50.306;18.926;2022-09-16T13:21:49;6.53;;;3.75;;
41623;SDS011;27319;50.306;18.926;2022-09-16T13:25:24;4.53;;;3.28;;
41623;SDS011;27319;50.306;18.926;2022-09-16T13:28:35;8.48;;;4.72;;
41623;SDS011;27319;50.306;18.926;2022-09-16T13:31:45;5.15;;;3.45;;
41623;SDS011;27319;50.306;18.926;2022-09-16T13:34:47;3.90;;;2.67;;
41623;SDS011;27319;50.306;18.926;2022-09-16T13:38:10;8.07;;;2.95;;
41623;SDS011;27319;50.306;18.926;2022-09-16T13:41:33;5.60;;;2.60;;
41623;SDS011;27319;50.306;18.926;2022-09-16T13:44:47;6.00;;;3.10;;
41623;SDS011;27319;50.306;18.926;2022-09-16T13:47:47;10.20;;;3.42;;
41623;SDS011;27319;50.306;18.926;2022-09-16T13:50:49;3.90;;;3.10;;
41623;SDS011;27319;50.306;18.926;2022-09-16T13:53:53;6.18;;;3.65;;
41623;SDS011;27319;50.306;18.926;2022-09-16T13:57:07;7.13;;;3.47;;
41623;SDS011;27319;50.306;18.926;2022-09-16T14:00:13;6.60;;;3.42;;
41623;SDS011;27319;50.306;18.926;2022-09-16T14:03:28;6.07;;;3.15;;
41623;SDS011;27319;50.306;18.926;2022-09-16T14:10:11;4.97;;;2.78;;
41623;SDS011;27319;50.306;18.926;2022-09-16T14:13:21;4.78;;;3.38;;
41623;SDS011;27319;50.306;18.926;2022-09-16T14:16:27;6.38;;;4.63;;
41623;SDS011;27319;50.306;18.926;2022-09-16T14:19:30;6.95;;;5.28;;
41623;SDS011;27319;50.306;18.926;2022-09-16T14:22:36;11.32;;;5.43;;
41623;SDS011;27319;50.306;18.926;2022-09-16T14:25:37;8.80;;;5.30;;
41623;SDS011;27319;50.306;18.926;2022-09-16T14:28:39;6.15;;;4.90;;
41623;SDS011;27319;50.306;18.926;2022-09-16T14:31:39;7.80;;;4.65;;
41623;SDS011;27319;50.306;18.926;2022-09-16T14:42:06;5.28;;;3.30;;
41623;SDS011;27319;50.306;18.926;2022-09-16T14:45:12;6.47;;;4.25;;
41623;SDS011;27319;50.306;18.926;2022-09-16T14:48:16;6.40;;;3.00;;
41623;SDS011;27319;50.306;18.926;2022-09-16T14:51:21;4.05;;;2.90;;
41623;SDS011;27319;50.306;18.926;2022-09-16T14:54:25;5.90;;;3.15;;
41623;SDS011;27319;50.306;18.926;2022-09-16T14:57:28;5.53;;;2.90;;
41623;SDS011;27319;50.306;18.926;2022-09-16T15:00:36;3.33;;;2.50;;
41623;SDS011;27319;50.306;18.926;2022-09-16T15:07:09;5.22;;;2.85;;
41623;SDS011;27319;50.306;18.926;2022-09-16T15:10:19;6.60;;;3.25;;
41623;SDS011;27319;50.306;18.926;2022-09-16T15:13:24;9.75;;;4.35;;
41623;SDS011;27319;50.306;18.926;2022-09-16T15:16:27;8.35;;;3.92;;
41623;SDS011;27319;50.306;18.926;2022-09-16T15:19:39;12.25;;;4.45;;
41623;SDS011;27319;50.306;18.926;2022-09-16T15:22:40;11.52;;;4.93;;
41623;SDS011;27319;50.306;18.926;2022-09-16T15:25:49;9.02;;;4.60;;
41623;SDS011;27319;50.306;18.926;2022-09-16T15:32:05;4.07;;;2.78;;
41623;SDS011;27319;50.306;18.926;2022-09-16T15:35:24;3.72;;;2.63;;
41623;SDS011;27319;50.306;18.926;2022-09-16T15:38:26;3.03;;;2.50;;
41623;SDS011;27319;50.306;18.926;2022-09-16T15:41:28;7.60;;;2.75;;
41623;SDS011;27319;50.306;18.926;2022-09-16T15:44:31;3.72;;;3.10;;
41623;SDS011;27319;50.306;18.926;2022-09-16T15:47:34;4.53;;;2.55;;
41623;SDS011;27319;50.306;18.926;2022-09-16T15:50:47;5.75;;;2.88;;
41623;SDS011;27319;50.306;18.926;2022-09-16T15:53:50;4.47;;;2.78;;
41623;SDS011;27319;50.306;18.926;2022-09-16T15:56:58;7.22;;;2.58;;
41623;SDS011;27319;50.306;18.926;2022-09-16T16:00:06;3.22;;;2.55;;
41623;SDS011;27319;50.306;18.926;2022-09-16T16:03:17;5.93;;;2.72;;
41623;SDS011;27319;50.306;18.926;2022-09-16T16:06:21;3.20;;;2.70;;
41623;SDS011;27319;50.306;18.926;2022-09-16T16:09:45;3.97;;;2.75;;
41623;SDS011;27319;50.306;18.926;2022-09-16T16:12:47;7.13;;;2.75;;
41623;SDS011;27319;50.306;18.926;2022-09-16T16:15:49;5.10;;;3.00;;
41623;SDS011;27319;50.306;18.926;2022-09-16T16:18:51;4.57;;;3.30;;
41623;SDS011;27319;50.306;18.926;2022-09-16T16:21:52;5.10;;;3.15;;
41623;SDS011;27319;50.306;18.926;2022-09-16T16:24:53;6.15;;;3.25;;
41623;SDS011;27319;50.306;18.926;2022-09-16T16:27:54;4.72;;;3.28;;
41623;SDS011;27319;50.306;18.926;2022-09-16T16:34:14;10.18;;;4.53;;
41623;SDS011;27319;50.306;18.926;2022-09-16T16:37:16;7.65;;;5.40;;
41623;SDS011;27319;50.306;18.926;2022-09-16T16:40:18;9.75;;;5.47;;
41623;SDS011;27319;50.306;18.926;2022-09-16T16:43:19;10.27;;;6.03;;
41623;SDS011;27319;50.306;18.926;2022-09-16T16:46:20;9.55;;;5.28;;
41623;SDS011;27319;50.306;18.926;2022-09-16T16:49:21;8.90;;;5.38;;
41623;SDS011;27319;50.306;18.926;2022-09-16T16:52:23;9.15;;;5.78;;
41623;SDS011;27319;50.306;18.926;2022-09-16T16:55:23;8.27;;;4.90;;
41623;SDS011;27319;50.306;18.926;2022-09-16T16:58:24;8.30;;;4.95;;
41623;SDS011;27319;50.306;18.926;2022-09-16T17:01:25;8.25;;;5.47;;
41623;SDS011;27319;50.306;18.926;2022-09-16T17:04:29;7.88;;;5.45;;
41623;SDS011;27319;50.306;18.926;2022-09-16T17:07:29;10.60;;;6.35;;
41623;SDS011;27319;50.306;18.926;2022-09-16T17:10:31;11.25;;;6.32;;
41623;SDS011;27319;50.306;18.926;2022-09-16T17:13:31;10.93;;;5.75;;
41623;SDS011;27319;50.306;18.926;2022-09-16T17:16:33;9.02;;;5.82;;
41623;SDS011;27319;50.306;18.926;2022-09-16T17:19:34;10.18;;;5.57;;
41623;SDS011;27319;50.306;18.926;2022-09-16T17:22:35;10.73;;;5.85;;
41623;SDS011;27319;50.306;18.926;2022-09-16T17:25:35;7.35;;;5.50;;
41623;SDS011;27319;50.306;18.926;2022-09-16T17:28:37;8.75;;;6.18;;
41623;SDS011;27319;50.306;18.926;2022-09-16T17:31:39;11.85;;;6.53;;
41623;SDS011;27319;50.306;18.926;2022-09-16T17:34:41;10.00;;;5.95;;
41623;SDS011;27319;50.306;18.926;2022-09-16T17:37:42;10.25;;;7.15;;
41623;SDS011;27319;50.306;18.926;2022-09-16T17:40:43;10.40;;;6.68;;
41623;SDS011;27319;50.306;18.926;2022-09-16T17:43:43;11.00;;;6.68;;
41623;SDS011;27319;50.306;18.926;2022-09-16T17:46:45;15.45;;;8.95;;
41623;SDS011;27319;50.306;18.926;2022-09-16T17:49:46;12.30;;;8.13;;
41623;SDS011;27319;50.306;18.926;2022-09-16T17:52:49;13.18;;;7.78;;
41623;SDS011;27319;50.306;18.926;2022-09-16T17:55:50;12.20;;;7.10;;
41623;SDS011;27319;50.306;18.926;2022-09-16T17:58:52;25.42;;;14.35;;
41623;SDS011;27319;50.306;18.926;2022-09-16T18:01:53;19.42;;;12.18;;
41623;SDS011;27319;50.306;18.926;2022-09-16T18:04:54;24.88;;;12.77;;
41623;SDS011;27319;50.306;18.926;2022-09-16T18:07:55;15.45;;;9.65;;
41623;SDS011;27319;50.306;18.926;2022-09-16T18:10:56;12.13;;;7.80;;
41623;SDS011;27319;50.306;18.926;2022-09-16T18:13:58;20.23;;;8.93;;
41623;SDS011;27319;50.306;18.926;2022-09-16T18:17:06;18.45;;;11.05;;
41623;SDS011;27319;50.306;18.926;2022-09-16T18:20:06;15.45;;;9.55;;
41623;SDS011;27319;50.306;18.926;2022-09-16T18:23:08;13.75;;;8.68;;
41623;SDS011;27319;50.306;18.926;2022-09-16T18:26:10;14.88;;;8.95;;
41623;SDS011;27319;50.306;18.926;2022-09-16T18:29:13;16.75;;;10.40;;
41623;SDS011;27319;50.306;18.926;2022-09-16T18:32:16;13.82;;;8.23;;
41623;SDS011;27319;50.306;18.926;2022-09-16T18:35:18;12.15;;;8.18;;
41623;SDS011;27319;50.306;18.926;2022-09-16T18:38:19;14.73;;;8.95;;
41623;SDS011;27319;50.306;18.926;2022-09-16T18:41:21;17.45;;;10.77;;
41623;SDS011;27319;50.306;18.926;2022-09-16T18:44:23;13.45;;;8.95;;
41623;SDS011;27319;50.306;18.926;2022-09-16T18:47:24;13.68;;;8.80;;
41623;SDS011;27319;50.306;18.926;2022-09-16T18:50:25;15.00;;;9.50;;
41623;SDS011;27319;50.306;18.926;2022-09-16T18:53:26;14.93;;;9.65;;
41623;SDS011;27319;50.306;18.926;2022-09-16T18:56:27;15.48;;;9.02;;
41623;SDS011;27319;50.306;18.926;2022-09-16T18:59:31;15.07;;;9.32;;
41623;SDS011;27319;50.306;18.926;2022-09-16T19:02:33;13.68;;;8.93;;
41623;SDS011;27319;50.306;18.926;2022-09-16T19:05:34;13.70;;;10.40;;
41623;SDS011;27319;50.306;18.926;2022-09-16T19:08:36;14.38;;;10.63;;
41623;SDS011;27319;50.306;18.926;2022-09-16T19:11:38;16.25;;;10.23;;
41623;SDS011;27319;50.306;18.926;2022-09-16T19:14:39;16.48;;;10.05;;
41623;SDS011;27319;50.306;18.926;2022-09-16T19:17:41;15.07;;;9.48;;
41623;SDS011;27319;50.306;18.926;2022-09-16T19:20:42;15.40;;;9.55;;
41623;SDS011;27319;50.306;18.926;2022-09-16T19:23:44;16.85;;;9.23;;
41623;SDS011;27319;50.306;18.926;2022-09-16T19:26:47;14.80;;;8.50;;
41623;SDS011;27319;50.306;18.926;2022-09-16T19:29:49;12.63;;;9.15;;
41623;SDS011;27319;50.306;18.926;2022-09-16T19:32:51;15.18;;;9.93;;
41623;SDS011;27319;50.306;18.926;2022-09-16T19:35:52;15.65;;;9.70;;
41623;SDS011;27319;50.306;18.926;2022-09-16T19:38:53;21.23;;;10.07;;
41623;SDS011;27319;50.306;18.926;2022-09-16T19:41:55;21.10;;;10.98;;
41623;SDS011;27319;50.306;18.926;2022-09-16T19:44:56;16.40;;;10.68;;
41623;SDS011;27319;50.306;18.926;2022-09-16T19:47:57;18.50;;;10.30;;
41623;SDS011;27319;50.306;18.926;2022-09-16T19:50:58;19.48;;;11.57;;
41623;SDS011;27319;50.306;18.926;2022-09-16T19:53:59;19.42;;;11.77;;
41623;SDS011;27319;50.306;18.926;2022-09-16T19:57:00;16.90;;;10.05;;
41623;SDS011;27319;50.306;18.926;2022-09-16T20:00:02;25.73;;;12.45;;
41623;SDS011;27319;50.306;18.926;2022-09-16T20:03:04;29.38;;;13.02;;
41623;SDS011;27319;50.306;18.926;2022-09-16T20:06:06;22.25;;;13.35;;
41623;SDS011;27319;50.306;18.926;2022-09-16T20:09:09;21.70;;;12.45;;
41623;SDS011;27319;50.306;18.926;2022-09-16T20:12:16;23.23;;;12.32;;
41623;SDS011;27319;50.306;18.926;2022-09-16T20:15:18;21.33;;;11.65;;
41623;SDS011;27319;50.306;18.926;2022-09-16T20:18:19;20.75;;;11.80;;
41623;SDS011;27319;50.306;18.926;2022-09-16T20:21:20;23.02;;;12.57;;
41623;SDS011;27319;50.306;18.926;2022-09-16T20:24:23;21.45;;;12.70;;
41623;SDS011;27319;50.306;18.926;2022-09-16T20:27:26;23.80;;;12.82;;
41623;SDS011;27319;50.306;18.926;2022-09-16T20:30:27;30.23;;;13.75;;
41623;SDS011;27319;50.306;18.926;2022-09-16T20:33:28;22.95;;;13.20;;
41623;SDS011;27319;50.306;18.926;2022-09-16T20:36:30;25.65;;;13.60;;
41623;SDS011;27319;50.306;18.926;2022-09-16T20:39:34;21.83;;;12.88;;
41623;SDS011;27319;50.306;18.926;2022-09-16T20:42:41;24.65;;;12.50;;
41623;SDS011;27319;50.306;18.926;2022-09-16T20:45:43;21.35;;;12.80;;
41623;SDS011;27319;50.306;18.926;2022-09-16T20:48:44;15.43;;;10.70;;
41623;SDS011;27319;50.306;18.926;2022-09-16T20:51:45;22.75;;;11.77;;
41623;SDS011;27319;50.306;18.926;2022-09-16T20:54:46;16.67;;;10.38;;
41623;SDS011;27319;50.306;18.926;2022-09-16T20:57:47;17.15;;;10.30;;
41623;SDS011;27319;50.306;18.926;2022-09-16T21:00:49;14.85;;;10.18;;